TimeCST,TemperatureF,Dew PointF,Humidity,Sea Level PressureIn,VisibilityMPH,Wind Direction,Wind SpeedMPH,Gust SpeedMPH,PrecipitationIn,Events,Conditions,WindDirDegrees,DateUTC
12:53 AM,55.0,32.0,42,29.92,10.0,South,11.5,-,N/A,,Partly Cloudy,190,2014-01-13 06:53:00
1:53 AM,52.0,37.0,57,29.91,10.0,South,11.5,23.0,0.01,Rain,Light Rain,170,2014-01-13 07:53:00
2:53 AM,51.1,37.9,61,29.91,10.0,South,11.5,-,0.00,,Mostly Cloudy,190,2014-01-13 08:53:00
3:53 AM,48.0,42.1,80,29.93,6.0,SSW,10.4,-,0.12,Rain,Rain,210,2014-01-13 09:53:00
4:53 AM,46.9,42.1,83,29.88,10.0,South,11.5,18.4,0.08,Rain,Light Rain,180,2014-01-13 10:53:00
5:53 AM,46.9,42.1,83,29.90,10.0,South,12.7,20.7,0.03,Rain,Light Rain,190,2014-01-13 11:53:00
6:53 AM,46.9,43.0,86,29.90,10.0,South,9.2,-,0.04,,Overcast,190,2014-01-13 12:53:00
7:07 AM,46.4,42.8,87,29.90,10.0,South,8.1,-,N/A,,Overcast,190,2014-01-13 13:07:00
7:45 AM,46.4,44.6,93,29.89,10.0,South,10.4,-,0.02,Rain,Light Rain,180,2014-01-13 13:45:00
7:53 AM,46.9,44.1,90,29.90,8.0,South,10.4,-,0.02,Rain,Light Rain,180,2014-01-13 13:53:00
8:53 AM,48.0,46.0,93,29.88,4.0,South,9.2,18.4,0.13,Rain,Rain,180,2014-01-13 14:53:00
9:16 AM,48.2,46.4,93,29.87,6.0,South,9.2,-,0.06,Rain,Rain,190,2014-01-13 15:16:00
9:24 AM,48.2,46.4,93,29.87,8.0,South,11.5,18.4,0.07,Rain,Light Rain,180,2014-01-13 15:24:00
9:53 AM,48.9,46.9,93,29.87,10.0,South,8.1,-,0.08,Rain,Light Rain,190,2014-01-13 15:53:00
10:19 AM,50.0,48.2,94,29.85,8.0,South,11.5,19.6,0.05,Rain,Light Rain,190,2014-01-13 16:19:00
10:53 AM,51.1,48.0,89,29.83,8.0,South,12.7,19.6,0.06,Rain,Light Rain,190,2014-01-13 16:53:00
11:23 AM,51.8,48.2,88,29.84,5.0,WSW,11.5,-,0.02,Rain,Light Rain,240,2014-01-13 17:23:00
11:28 AM,51.8,48.2,88,29.82,2.5,SSW,10.4,-,0.04,Rain,Rain,200,2014-01-13 17:28:00
11:39 AM,51.8,48.2,88,29.82,3.0,SSW,9.2,-,0.08,Rain,Rain,210,2014-01-13 17:39:00
11:44 AM,51.8,48.2,88,29.81,2.5,SSW,8.1,-,0.11,Rain,Rain,210,2014-01-13 17:44:00
11:53 AM,51.1,48.9,92,29.81,2.5,SSW,9.2,-,0.15,Rain,Rain,200,2014-01-13 17:53:00
12:13 PM,51.8,50.0,94,29.80,2.5,South,8.1,-,0.10,Rain,Rain,190,2014-01-13 18:13:00
12:17 PM,51.8,50.0,94,29.80,3.0,South,8.1,-,0.11,Rain,Rain,190,2014-01-13 18:17:00
12:25 PM,51.8,50.0,94,29.79,2.5,South,6.9,-,0.14,Rain,Rain,190,2014-01-13 18:25:00
12:51 PM,51.8,50.0,94,29.78,4.0,SSW,6.9,-,0.23,Rain,Light Rain,200,2014-01-13 18:51:00
12:53 PM,52.0,50.0,93,29.78,2.0,SSW,5.8,-,0.23,Rain,Rain,200,2014-01-13 18:53:00
1:05 PM,51.8,50.0,94,29.77,7.0,SW,5.8,-,0.02,Rain,Light Rain,220,2014-01-13 19:05:00
1:53 PM,53.1,51.1,93,29.77,3.0,SSW,8.1,-,0.05,Rain,Light Rain,200,2014-01-13 19:53:00
2:09 PM,53.6,51.8,94,29.77,2.0,SW,6.9,-,0.01,Rain,Light Rain,220,2014-01-13 20:09:00
2:33 PM,53.6,51.8,94,29.77,1.0,SW,4.6,-,0.02,Rain,Light Rain,220,2014-01-13 20:33:00
2:43 PM,53.6,51.8,94,29.77,2.0,SW,5.8,-,0.04,Rain,Light Rain,220,2014-01-13 20:43:00
2:53 PM,53.1,51.1,93,29.78,2.0,SSW,5.8,-,0.04,Rain,Light Rain,210,2014-01-13 20:53:00
3:11 PM,53.6,51.8,94,29.78,2.5,SW,5.8,-,0.01,Rain,Light Rain,230,2014-01-13 21:11:00
3:41 PM,53.6,51.8,94,29.78,4.0,SW,5.8,-,0.01,,Overcast,230,2014-01-13 21:41:00
3:53 PM,53.1,51.1,93,29.78,5.0,SW,6.9,-,0.01,,Overcast,220,2014-01-13 21:53:00
3:55 PM,53.6,51.8,94,29.77,10.0,SW,8.1,-,N/A,,Overcast,220,2014-01-13 21:55:00
4:03 PM,53.6,51.8,94,29.77,10.0,SW,6.9,-,N/A,,Overcast,220,2014-01-13 22:03:00
4:53 PM,53.1,51.1,93,29.79,10.0,WSW,5.8,-,N/A,,Overcast,240,2014-01-13 22:53:00
5:35 PM,51.8,50.0,94,29.80,10.0,WSW,5.8,-,N/A,,Overcast,250,2014-01-13 23:35:00
5:53 PM,51.1,50.0,96,29.81,10.0,West,5.8,-,N/A,,Overcast,260,2014-01-13 23:53:00
6:53 PM,52.0,50.0,93,29.84,10.0,WSW,6.9,-,N/A,,Overcast,250,2014-01-14 00:53:00
7:15 PM,50.0,48.2,94,29.84,10.0,WSW,4.6,-,N/A,,Mostly Cloudy,250,2014-01-14 01:15:00
7:27 PM,50.0,48.2,94,29.85,10.0,West,4.6,-,N/A,,Mostly Cloudy,260,2014-01-14 01:27:00
7:53 PM,51.1,48.9,92,29.85,10.0,West,9.2,-,N/A,,Overcast,260,2014-01-14 01:53:00
8:08 PM,51.8,50.0,94,29.85,7.0,West,8.1,-,N/A,,Overcast,270,2014-01-14 02:08:00
8:40 PM,48.2,46.4,93,29.86,10.0,West,6.9,-,N/A,,Scattered Clouds,270,2014-01-14 02:40:00
8:53 PM,48.9,46.9,93,29.87,10.0,West,6.9,-,N/A,,Scattered Clouds,270,2014-01-14 02:53:00
9:53 PM,48.0,43.0,83,29.89,10.0,WNW,8.1,-,N/A,,Clear,290,2014-01-14 03:53:00
10:53 PM,46.0,39.9,79,29.91,10.0,WNW,8.1,-,N/A,,Clear,290,2014-01-14 04:53:00
11:53 PM,44.1,35.1,71,29.91,10.0,WNW,6.9,-,N/A,,Clear,300,2014-01-14 05:53:00